sensor_id;sensor_type;location;lat;lon;timestamp;P1;durP1;ratioP1;P2;durP2;ratioP2
66020;SDS011;52789;59.980;30.346;2024-03-02T00:00:09;11.47;;;5.33;;
66020;SDS011;52789;59.980;30.346;2024-03-02T00:05:09;6.87;;;5.03;;
66020;SDS011;52789;59.980;30.346;2024-03-02T00:07:37;7.77;;;5.80;;
66020;SDS011;52789;59.980;30.346;2024-03-02T00:10:07;9.83;;;5.20;;
66020;SDS011;52789;59.980;30.346;2024-03-02T00:12:37;5.13;;;4.60;;
66020;SDS011;52789;59.980;30.346;2024-03-02T00:15:21;6.77;;;4.87;;
66020;SDS011;52789;59.980;30.346;2024-03-02T00:17:57;5.40;;;4.40;;
66020;SDS011;52789;59.980;30.346;2024-03-02T00:20:24;4.53;;;3.90;;
66020;SDS011;52789;59.980;30.346;2024-03-02T00:23:10;5.38;;;4.53;;
66020;SDS011;52789;59.980;30.346;2024-03-02T00:25:41;5.85;;;4.88;;
66020;SDS011;52789;59.980;30.346;2024-03-02T00:33:22;11.00;;;4.20;;
66020;SDS011;52789;59.980;30.346;2024-03-02T00:35:49;7.27;;;4.90;;
66020;SDS011;52789;59.980;30.346;2024-03-02T00:38:15;7.57;;;5.07;;
66020;SDS011;52789;59.980;30.346;2024-03-02T00:40:44;7.20;;;5.23;;
66020;SDS011;52789;59.980;30.346;2024-03-02T00:43:24;7.80;;;4.90;;
66020;SDS011;52789;59.980;30.346;2024-03-02T00:45:59;8.38;;;5.53;;
66020;SDS011;52789;59.980;30.346;2024-03-02T00:48:25;7.43;;;5.73;;
66020;SDS011;52789;59.980;30.346;2024-03-02T00:50:52;12.97;;;8.27;;
66020;SDS011;52789;59.980;30.346;2024-03-02T00:53:18;14.53;;;8.07;;
66020;SDS011;52789;59.980;30.346;2024-03-02T00:55:50;10.53;;;7.77;;
66020;SDS011;52789;59.980;30.346;2024-03-02T00:58:15;11.20;;;7.63;;
66020;SDS011;52789;59.980;30.346;2024-03-02T01:00:41;15.83;;;8.40;;
66020;SDS011;52789;59.980;30.346;2024-03-02T01:03:06;14.87;;;8.67;;
66020;SDS011;52789;59.980;30.346;2024-03-02T01:05:33;15.20;;;9.63;;
66020;SDS011;52789;59.980;30.346;2024-03-02T01:07:59;15.47;;;9.00;;
66020;SDS011;52789;59.980;30.346;2024-03-02T01:10:24;18.20;;;11.63;;
66020;SDS011;52789;59.980;30.346;2024-03-02T01:12:51;17.87;;;12.10;;
66020;SDS011;52789;59.980;30.346;2024-03-02T01:15:16;15.43;;;10.27;;
66020;SDS011;52789;59.980;30.346;2024-03-02T01:17:42;15.07;;;9.67;;
66020;SDS011;52789;59.980;30.346;2024-03-02T01:20:08;14.13;;;10.00;;
66020;SDS011;52789;59.980;30.346;2024-03-02T01:22:34;13.70;;;9.53;;
66020;SDS011;52789;59.980;30.346;2024-03-02T01:25:01;14.73;;;10.23;;
66020;SDS011;52789;59.980;30.346;2024-03-02T01:27:28;15.03;;;11.00;;
66020;SDS011;52789;59.980;30.346;2024-03-02T01:29:55;16.57;;;10.73;;
66020;SDS011;52789;59.980;30.346;2024-03-02T01:32:20;13.87;;;10.87;;
66020;SDS011;52789;59.980;30.346;2024-03-02T01:34:48;16.27;;;10.70;;
66020;SDS011;52789;59.980;30.346;2024-03-02T01:37:13;15.47;;;9.03;;
66020;SDS011;52789;59.980;30.346;2024-03-02T01:39:39;14.57;;;10.33;;
66020;SDS011;52789;59.980;30.346;2024-03-02T01:42:04;13.90;;;9.40;;
66020;SDS011;52789;59.980;30.346;2024-03-02T01:44:30;13.63;;;8.83;;
66020;SDS011;52789;59.980;30.346;2024-03-02T01:46:56;16.90;;;10.93;;
66020;SDS011;52789;59.980;30.346;2024-03-02T01:49:21;16.07;;;11.37;;
66020;SDS011;52789;59.980;30.346;2024-03-02T01:51:47;13.03;;;9.73;;
66020;SDS011;52789;59.980;30.346;2024-03-02T01:54:13;11.83;;;8.20;;
66020;SDS011;52789;59.980;30.346;2024-03-02T01:56:39;12.07;;;7.70;;
66020;SDS011;52789;59.980;30.346;2024-03-02T01:59:04;11.37;;;6.93;;
66020;SDS011;52789;59.980;30.346;2024-03-02T02:01:30;9.50;;;7.07;;
66020;SDS011;52789;59.980;30.346;2024-03-02T02:03:56;10.50;;;7.23;;
66020;SDS011;52789;59.980;30.346;2024-03-02T02:06:22;11.33;;;7.43;;
66020;SDS011;52789;59.980;30.346;2024-03-02T02:08:47;12.37;;;6.90;;
66020;SDS011;52789;59.980;30.346;2024-03-02T02:11:16;8.80;;;6.53;;
66020;SDS011;52789;59.980;30.346;2024-03-02T02:13:42;9.43;;;7.07;;
66020;SDS011;52789;59.980;30.346;2024-03-02T02:16:08;10.87;;;6.87;;
66020;SDS011;52789;59.980;30.346;2024-03-02T02:18:34;8.60;;;6.47;;
66020;SDS011;52789;59.980;30.346;2024-03-02T02:21:03;7.43;;;5.72;;
66020;SDS011;52789;59.980;30.346;2024-03-02T02:23:28;7.43;;;5.87;;
66020;SDS011;52789;59.980;30.346;2024-03-02T02:25:56;8.57;;;7.03;;
66020;SDS011;52789;59.980;30.346;2024-03-02T02:28:27;12.90;;;6.10;;
66020;SDS011;52789;59.980;30.346;2024-03-02T02:30:54;8.97;;;6.60;;
66020;SDS011;52789;59.980;30.346;2024-03-02T02:33:21;9.88;;;8.43;;
66020;SDS011;52789;59.980;30.346;2024-03-02T02:35:47;11.83;;;8.13;;
66020;SDS011;52789;59.980;30.346;2024-03-02T02:38:12;12.23;;;8.27;;
66020;SDS011;52789;59.980;30.346;2024-03-02T02:40:38;17.17;;;9.57;;
66020;SDS011;52789;59.980;30.346;2024-03-02T02:43:04;12.73;;;8.17;;
66020;SDS011;52789;59.980;30.346;2024-03-02T02:45:29;12.30;;;8.27;;
66020;SDS011;52789;59.980;30.346;2024-03-02T02:47:55;11.03;;;8.80;;
66020;SDS011;52789;59.980;30.346;2024-03-02T02:50:21;9.00;;;7.63;;
66020;SDS011;52789;59.980;30.346;2024-03-02T02:52:47;10.40;;;7.77;;
66020;SDS011;52789;59.980;30.346;2024-03-02T02:55:12;12.87;;;9.10;;
66020;SDS011;52789;59.980;30.346;2024-03-02T02:57:39;12.93;;;8.40;;
66020;SDS011;52789;59.980;30.346;2024-03-02T03:00:11;12.35;;;9.00;;
66020;SDS011;52789;59.980;30.346;2024-03-02T03:02:41;13.73;;;9.13;;
66020;SDS011;52789;59.980;30.346;2024-03-02T03:05:11;12.73;;;9.60;;
66020;SDS011;52789;59.980;30.346;2024-03-02T03:07:41;11.70;;;8.97;;
66020;SDS011;52789;59.980;30.346;2024-03-02T03:10:07;15.90;;;8.53;;
66020;SDS011;52789;59.980;30.346;2024-03-02T03:12:34;13.73;;;10.27;;
66020;SDS011;52789;59.980;30.346;2024-03-02T03:15:00;13.93;;;10.13;;
66020;SDS011;52789;59.980;30.346;2024-03-02T03:17:26;15.37;;;11.03;;
66020;SDS011;52789;59.980;30.346;2024-03-02T03:19:53;13.40;;;10.20;;
66020;SDS011;52789;59.980;30.346;2024-03-02T03:22:18;12.77;;;9.60;;
66020;SDS011;52789;59.980;30.346;2024-03-02T03:24:44;13.97;;;8.40;;
66020;SDS011;52789;59.980;30.346;2024-03-02T03:27:11;10.67;;;8.33;;
66020;SDS011;52789;59.980;30.346;2024-03-02T03:29:37;9.30;;;7.77;;
66020;SDS011;52789;59.980;30.346;2024-03-02T03:32:03;14.50;;;8.97;;
66020;SDS011;52789;59.980;30.346;2024-03-02T03:34:32;12.83;;;8.20;;
66020;SDS011;52789;59.980;30.346;2024-03-02T03:36:58;11.25;;;8.50;;
66020;SDS011;52789;59.980;30.346;2024-03-02T03:39:23;14.33;;;9.07;;
66020;SDS011;52789;59.980;30.346;2024-03-02T03:41:49;13.37;;;8.63;;
66020;SDS011;52789;59.980;30.346;2024-03-02T03:44:15;10.70;;;7.53;;
66020;SDS011;52789;59.980;30.346;2024-03-02T03:46:41;12.40;;;8.33;;
66020;SDS011;52789;59.980;30.346;2024-03-02T03:49:06;10.97;;;7.77;;
66020;SDS011;52789;59.980;30.346;2024-03-02T03:51:33;18.97;;;8.60;;
66020;SDS011;52789;59.980;30.346;2024-03-02T03:53:59;10.80;;;7.50;;
66020;SDS011;52789;59.980;30.346;2024-03-02T03:56:24;11.90;;;7.97;;
66020;SDS011;52789;59.980;30.346;2024-03-02T03:58:50;12.67;;;7.10;;
66020;SDS011;52789;59.980;30.346;2024-03-02T04:01:16;10.60;;;7.10;;
66020;SDS011;52789;59.980;30.346;2024-03-02T04:03:41;12.80;;;8.50;;
66020;SDS011;52789;59.980;30.346;2024-03-02T04:06:07;11.50;;;8.07;;
66020;SDS011;52789;59.980;30.346;2024-03-02T04:08:32;9.33;;;7.20;;
66020;SDS011;52789;59.980;30.346;2024-03-02T04:10:58;11.90;;;8.67;;
66020;SDS011;52789;59.980;30.346;2024-03-02T04:13:23;14.90;;;8.17;;
66020;SDS011;52789;59.980;30.346;2024-03-02T04:15:49;14.00;;;8.50;;
66020;SDS011;52789;59.980;30.346;2024-03-02T04:18:14;10.80;;;7.80;;
66020;SDS011;52789;59.980;30.346;2024-03-02T04:20:40;11.13;;;9.63;;
66020;SDS011;52789;59.980;30.346;2024-03-02T04:23:05;14.70;;;10.27;;
66020;SDS011;52789;59.980;30.346;2024-03-02T04:25:31;13.83;;;8.63;;
66020;SDS011;52789;59.980;30.346;2024-03-02T04:27:57;12.17;;;7.77;;
66020;SDS011;52789;59.980;30.346;2024-03-02T04:30:23;14.50;;;9.20;;
66020;SDS011;52789;59.980;30.346;2024-03-02T04:32:50;10.93;;;7.57;;
66020;SDS011;52789;59.980;30.346;2024-03-02T04:35:16;7.97;;;7.00;;
66020;SDS011;52789;59.980;30.346;2024-03-02T04:37:41;8.67;;;7.13;;
66020;SDS011;52789;59.980;30.346;2024-03-02T04:40:07;10.03;;;7.10;;
66020;SDS011;52789;59.980;30.346;2024-03-02T04:42:34;9.60;;;7.07;;
66020;SDS011;52789;59.980;30.346;2024-03-02T04:45:00;9.90;;;7.67;;
66020;SDS011;52789;59.980;30.346;2024-03-02T04:47:26;9.77;;;6.73;;
66020;SDS011;52789;59.980;30.346;2024-03-02T04:49:52;11.70;;;7.27;;
66020;SDS011;52789;59.980;30.346;2024-03-02T04:52:18;11.30;;;7.43;;
66020;SDS011;52789;59.980;30.346;2024-03-02T04:54:43;9.60;;;7.33;;
66020;SDS011;52789;59.980;30.346;2024-03-02T04:57:28;11.03;;;7.30;;
66020;SDS011;52789;59.980;30.346;2024-03-02T04:59:54;10.33;;;7.07;;
66020;SDS011;52789;59.980;30.346;2024-03-02T05:02:19;9.90;;;7.00;;
66020;SDS011;52789;59.980;30.346;2024-03-02T05:04:45;8.00;;;6.70;;
66020;SDS011;52789;59.980;30.346;2024-03-02T05:07:11;8.00;;;6.23;;
66020;SDS011;52789;59.980;30.346;2024-03-02T05:09:36;9.97;;;6.23;;
66020;SDS011;52789;59.980;30.346;2024-03-02T05:12:02;8.53;;;6.07;;
66020;SDS011;52789;59.980;30.346;2024-03-02T05:14:46;10.03;;;6.50;;
66020;SDS011;52789;59.980;30.346;2024-03-02T05:17:12;11.47;;;5.87;;
66020;SDS011;52789;59.980;30.346;2024-03-02T05:19:37;9.47;;;6.53;;
66020;SDS011;52789;59.980;30.346;2024-03-02T05:22:03;8.33;;;5.43;;
66020;SDS011;52789;59.980;30.346;2024-03-02T05:24:29;7.80;;;5.47;;
66020;SDS011;52789;59.980;30.346;2024-03-02T05:26:55;8.77;;;5.43;;
66020;SDS011;52789;59.980;30.346;2024-03-02T05:29:21;5.80;;;4.73;;
66020;SDS011;52789;59.980;30.346;2024-03-02T05:31:47;5.47;;;4.97;;
66020;SDS011;52789;59.980;30.346;2024-03-02T05:34:13;6.57;;;5.33;;
66020;SDS011;52789;59.980;30.346;2024-03-02T05:36:38;10.57;;;5.20;;
66020;SDS011;52789;59.980;30.346;2024-03-02T05:39:07;7.13;;;4.57;;
66020;SDS011;52789;59.980;30.346;2024-03-02T05:41:34;6.00;;;5.40;;
66020;SDS011;52789;59.980;30.346;2024-03-02T05:44:00;5.57;;;4.80;;
66020;SDS011;52789;59.980;30.346;2024-03-02T05:46:26;5.23;;;4.47;;
66020;SDS011;52789;59.980;30.346;2024-03-02T05:48:53;5.33;;;4.80;;
66020;SDS011;52789;59.980;30.346;2024-03-02T05:51:18;5.30;;;4.80;;
66020;SDS011;52789;59.980;30.346;2024-03-02T05:53:44;5.73;;;5.07;;
66020;SDS011;52789;59.980;30.346;2024-03-02T05:56:09;6.40;;;5.40;;
66020;SDS011;52789;59.980;30.346;2024-03-02T05:58:35;6.10;;;5.47;;
66020;SDS011;52789;59.980;30.346;2024-03-02T06:01:21;7.17;;;5.77;;
66020;SDS011;52789;59.980;30.346;2024-03-02T06:03:53;6.17;;;5.17;;
66020;SDS011;52789;59.980;30.346;2024-03-02T06:06:20;5.70;;;4.97;;
66020;SDS011;52789;59.980;30.346;2024-03-02T06:08:46;5.97;;;5.37;;
66020;SDS011;52789;59.980;30.346;2024-03-02T06:11:11;6.90;;;5.37;;
66020;SDS011;52789;59.980;30.346;2024-03-02T06:13:37;5.23;;;4.70;;
66020;SDS011;52789;59.980;30.346;2024-03-02T06:16:02;7.50;;;5.30;;
66020;SDS011;52789;59.980;30.346;2024-03-02T06:18:28;8.80;;;6.77;;
66020;SDS011;52789;59.980;30.346;2024-03-02T06:20:54;6.57;;;5.53;;
66020;SDS011;52789;59.980;30.346;2024-03-02T06:23:19;6.30;;;5.23;;
66020;SDS011;52789;59.980;30.346;2024-03-02T06:25:46;9.30;;;5.33;;
66020;SDS011;52789;59.980;30.346;2024-03-02T06:28:11;5.27;;;4.77;;
66020;SDS011;52789;59.980;30.346;2024-03-02T06:30:37;4.40;;;4.00;;
66020;SDS011;52789;59.980;30.346;2024-03-02T06:33:03;4.73;;;3.90;;
66020;SDS011;52789;59.980;30.346;2024-03-02T06:35:29;4.63;;;4.03;;
66020;SDS011;52789;59.980;30.346;2024-03-02T06:37:54;5.37;;;4.10;;
66020;SDS011;52789;59.980;30.346;2024-03-02T06:40:20;7.47;;;5.73;;
66020;SDS011;52789;59.980;30.346;2024-03-02T06:42:47;7.30;;;6.20;;
66020;SDS011;52789;59.980;30.346;2024-03-02T06:45:12;17.07;;;11.17;;
66020;SDS011;52789;59.980;30.346;2024-03-02T06:47:38;9.73;;;7.03;;
66020;SDS011;52789;59.980;30.346;2024-03-02T06:50:03;15.37;;;9.23;;
66020;SDS011;52789;59.980;30.346;2024-03-02T06:52:29;10.83;;;7.07;;
66020;SDS011;52789;59.980;30.346;2024-03-02T06:54:55;8.17;;;5.77;;
66020;SDS011;52789;59.980;30.346;2024-03-02T06:57:21;10.60;;;5.47;;
66020;SDS011;52789;59.980;30.346;2024-03-02T06:59:46;8.90;;;5.70;;
66020;SDS011;52789;59.980;30.346;2024-03-02T07:02:13;6.83;;;5.70;;
66020;SDS011;52789;59.980;30.346;2024-03-02T07:04:39;22.57;;;12.57;;
66020;SDS011;52789;59.980;30.346;2024-03-02T07:07:05;27.13;;;16.40;;
66020;SDS011;52789;59.980;30.346;2024-03-02T07:09:30;16.10;;;9.37;;
66020;SDS011;52789;59.980;30.346;2024-03-02T07:11:56;13.27;;;8.30;;
66020;SDS011;52789;59.980;30.346;2024-03-02T07:14:21;14.73;;;8.37;;
66020;SDS011;52789;59.980;30.346;2024-03-02T07:17:02;9.77;;;5.67;;
66020;SDS011;52789;59.980;30.346;2024-03-02T07:19:28;8.27;;;6.20;;
66020;SDS011;52789;59.980;30.346;2024-03-02T07:21:53;8.67;;;6.73;;
66020;SDS011;52789;59.980;30.346;2024-03-02T07:24:19;7.73;;;5.80;;
66020;SDS011;52789;59.980;30.346;2024-03-02T07:26:47;13.07;;;8.83;;
66020;SDS011;52789;59.980;30.346;2024-03-02T07:29:12;11.53;;;8.87;;
66020;SDS011;52789;59.980;30.346;2024-03-02T07:31:38;11.97;;;8.60;;
66020;SDS011;52789;59.980;30.346;2024-03-02T07:34:03;13.37;;;8.77;;
66020;SDS011;52789;59.980;30.346;2024-03-02T07:36:29;8.00;;;6.03;;
66020;SDS011;52789;59.980;30.346;2024-03-02T07:38:54;7.00;;;5.83;;
66020;SDS011;52789;59.980;30.346;2024-03-02T07:41:20;7.60;;;6.77;;
66020;SDS011;52789;59.980;30.346;2024-03-02T07:43:46;7.07;;;6.30;;
66020;SDS011;52789;59.980;30.346;2024-03-02T07:46:11;7.53;;;5.93;;
66020;SDS011;52789;59.980;30.346;2024-03-02T07:48:37;8.43;;;5.93;;
66020;SDS011;52789;59.980;30.346;2024-03-02T07:51:03;11.93;;;6.60;;
66020;SDS011;52789;59.980;30.346;2024-03-02T07:53:29;10.90;;;5.77;;
66020;SDS011;52789;59.980;30.346;2024-03-02T07:55:54;11.70;;;6.87;;
66020;SDS011;52789;59.980;30.346;2024-03-02T07:58:26;7.03;;;5.53;;
66020;SDS011;52789;59.980;30.346;2024-03-02T08:00:52;12.90;;;7.47;;
66020;SDS011;52789;59.980;30.346;2024-03-02T08:03:17;10.83;;;6.87;;
66020;SDS011;52789;59.980;30.346;2024-03-02T08:05:44;9.23;;;6.27;;
66020;SDS011;52789;59.980;30.346;2024-03-02T08:08:09;9.70;;;6.37;;
66020;SDS011;52789;59.980;30.346;2024-03-02T08:10:37;9.60;;;6.43;;
66020;SDS011;52789;59.980;30.346;2024-03-02T08:13:02;9.17;;;6.53;;
66020;SDS011;52789;59.980;30.346;2024-03-02T08:15:28;15.30;;;9.73;;
66020;SDS011;52789;59.980;30.346;2024-03-02T08:17:53;15.23;;;8.47;;
66020;SDS011;52789;59.980;30.346;2024-03-02T08:20:19;8.03;;;5.40;;
66020;SDS011;52789;59.980;30.346;2024-03-02T08:22:45;8.77;;;5.30;;
66020;SDS011;52789;59.980;30.346;2024-03-02T08:25:10;7.93;;;6.53;;
66020;SDS011;52789;59.980;30.346;2024-03-02T08:27:36;9.23;;;6.50;;
66020;SDS011;52789;59.980;30.346;2024-03-02T08:30:03;6.33;;;4.10;;
66020;SDS011;52789;59.980;30.346;2024-03-02T08:32:31;7.68;;;4.95;;
66020;SDS011;52789;59.980;30.346;2024-03-02T08:34:57;5.83;;;4.80;;
66020;SDS011;52789;59.980;30.346;2024-03-02T08:37:22;6.47;;;5.17;;
66020;SDS011;52789;59.980;30.346;2024-03-02T08:39:48;6.77;;;5.00;;
66020;SDS011;52789;59.980;30.346;2024-03-02T08:42:15;7.83;;;5.77;;
66020;SDS011;52789;59.980;30.346;2024-03-02T08:44:40;5.83;;;5.17;;
66020;SDS011;52789;59.980;30.346;2024-03-02T08:47:06;6.73;;;5.57;;
66020;SDS011;52789;59.980;30.346;2024-03-02T08:49:32;6.43;;;5.00;;
66020;SDS011;52789;59.980;30.346;2024-03-02T08:51:57;10.63;;;5.87;;
66020;SDS011;52789;59.980;30.346;2024-03-02T08:54:23;5.77;;;5.03;;
66020;SDS011;52789;59.980;30.346;2024-03-02T08:56:49;7.00;;;5.27;;
66020;SDS011;52789;59.980;30.346;2024-03-02T08:59:15;7.20;;;5.10;;
66020;SDS011;52789;59.980;30.346;2024-03-02T09:01:41;7.23;;;6.33;;
66020;SDS011;52789;59.980;30.346;2024-03-02T09:04:07;6.27;;;5.30;;
66020;SDS011;52789;59.980;30.346;2024-03-02T09:06:36;6.25;;;4.82;;
66020;SDS011;52789;59.980;30.346;2024-03-02T09:09:01;5.27;;;4.63;;
66020;SDS011;52789;59.980;30.346;2024-03-02T09:11:28;6.37;;;3.97;;
66020;SDS011;52789;59.980;30.346;2024-03-02T09:13:54;6.20;;;4.60;;
66020;SDS011;52789;59.980;30.346;2024-03-02T09:16:21;6.30;;;4.80;;
66020;SDS011;52789;59.980;30.346;2024-03-02T09:18:46;7.03;;;4.93;;
66020;SDS011;52789;59.980;30.346;2024-03-02T09:21:12;4.63;;;4.10;;
66020;SDS011;52789;59.980;30.346;2024-03-02T09:23:38;9.40;;;5.23;;
66020;SDS011;52789;59.980;30.346;2024-03-02T09:26:06;7.27;;;5.73;;
66020;SDS011;52789;59.980;30.346;2024-03-02T09:28:32;5.93;;;4.67;;
66020;SDS011;52789;59.980;30.346;2024-03-02T09:30:58;5.83;;;4.97;;
66020;SDS011;52789;59.980;30.346;2024-03-02T09:33:25;6.27;;;5.30;;
66020;SDS011;52789;59.980;30.346;2024-03-02T09:35:52;16.87;;;6.70;;
66020;SDS011;52789;59.980;30.346;2024-03-02T09:38:18;7.17;;;5.13;;
66020;SDS011;52789;59.980;30.346;2024-03-02T09:40:44;6.50;;;4.67;;
66020;SDS011;52789;59.980;30.346;2024-03-02T09:43:09;4.47;;;3.73;;
66020;SDS011;52789;59.980;30.346;2024-03-02T09:45:36;5.90;;;4.97;;
66020;SDS011;52789;59.980;30.346;2024-03-02T09:48:01;5.67;;;4.93;;
66020;SDS011;52789;59.980;30.346;2024-03-02T09:50:27;6.40;;;5.80;;
66020;SDS011;52789;59.980;30.346;2024-03-02T09:52:53;8.60;;;5.47;;
66020;SDS011;52789;59.980;30.346;2024-03-02T09:55:19;6.77;;;5.13;;
66020;SDS011;52789;59.980;30.346;2024-03-02T09:57:46;6.30;;;5.40;;
66020;SDS011;52789;59.980;30.346;2024-03-02T10:00:14;10.10;;;6.25;;
66020;SDS011;52789;59.980;30.346;2024-03-02T10:02:43;10.07;;;6.17;;
66020;SDS011;52789;59.980;30.346;2024-03-02T10:07:35;9.03;;;5.37;;
66020;SDS011;52789;59.980;30.346;2024-03-02T10:10:12;7.83;;;6.13;;
66020;SDS011;52789;59.980;30.346;2024-03-02T10:12:39;9.00;;;6.35;;
66020;SDS011;52789;59.980;30.346;2024-03-02T10:15:05;9.40;;;6.93;;
66020;SDS011;52789;59.980;30.346;2024-03-02T10:17:31;6.93;;;6.10;;
66020;SDS011;52789;59.980;30.346;2024-03-02T10:19:57;8.33;;;5.33;;
66020;SDS011;52789;59.980;30.346;2024-03-02T10:22:23;6.30;;;5.17;;
66020;SDS011;52789;59.980;30.346;2024-03-02T10:24:48;8.20;;;5.97;;
66020;SDS011;52789;59.980;30.346;2024-03-02T10:29:45;6.22;;;5.43;;
66020;SDS011;52789;59.980;30.346;2024-03-02T10:34:40;6.73;;;5.63;;
66020;SDS011;52789;59.980;30.346;2024-03-02T10:37:07;6.43;;;5.03;;
66020;SDS011;52789;59.980;30.346;2024-03-02T10:39:36;5.87;;;4.77;;
66020;SDS011;52789;59.980;30.346;2024-03-02T10:42:02;6.63;;;5.00;;
66020;SDS011;52789;59.980;30.346;2024-03-02T10:44:29;5.20;;;4.60;;
66020;SDS011;52789;59.980;30.346;2024-03-02T10:46:56;8.53;;;5.03;;
66020;SDS011;52789;59.980;30.346;2024-03-02T10:49:23;7.50;;;5.60;;
66020;SDS011;52789;59.980;30.346;2024-03-02T10:51:51;6.07;;;4.82;;
66020;SDS011;52789;59.980;30.346;2024-03-02T10:54:18;6.77;;;5.77;;
66020;SDS011;52789;59.980;30.346;2024-03-02T10:56:44;8.30;;;6.67;;
66020;SDS011;52789;59.980;30.346;2024-03-02T11:01:56;8.47;;;6.87;;
66020;SDS011;52789;59.980;30.346;2024-03-02T11:04:24;7.43;;;5.70;;
66020;SDS011;52789;59.980;30.346;2024-03-02T11:06:59;5.63;;;4.83;;
66020;SDS011;52789;59.980;30.346;2024-03-02T11:09:28;7.93;;;5.20;;
66020;SDS011;52789;59.980;30.346;2024-03-02T11:14:44;7.68;;;6.18;;
66020;SDS011;52789;59.980;30.346;2024-03-02T11:17:11;6.30;;;5.27;;
66020;SDS011;52789;59.980;30.346;2024-03-02T11:19:40;7.33;;;5.93;;
66020;SDS011;52789;59.980;30.346;2024-03-02T11:22:06;9.83;;;5.30;;
66020;SDS011;52789;59.980;30.346;2024-03-02T11:24:33;6.97;;;5.50;;
66020;SDS011;52789;59.980;30.346;2024-03-02T11:26:59;6.50;;;4.90;;
66020;SDS011;52789;59.980;30.346;2024-03-02T11:32:04;6.87;;;5.20;;
66020;SDS011;52789;59.980;30.346;2024-03-02T11:34:41;9.03;;;6.20;;
66020;SDS011;52789;59.980;30.346;2024-03-02T11:37:18;10.23;;;7.63;;
66020;SDS011;52789;59.980;30.346;2024-03-02T11:39:48;9.20;;;5.17;;
66020;SDS011;52789;59.980;30.346;2024-03-02T11:42:15;6.40;;;4.70;;
66020;SDS011;52789;59.980;30.346;2024-03-02T11:44:42;22.13;;;12.73;;
66020;SDS011;52789;59.980;30.346;2024-03-02T11:47:11;19.15;;;9.00;;
66020;SDS011;52789;59.980;30.346;2024-03-02T11:49:46;15.83;;;8.23;;
66020;SDS011;52789;59.980;30.346;2024-03-02T11:52:14;27.53;;;13.47;;
66020;SDS011;52789;59.980;30.346;2024-03-02T11:54:41;24.80;;;12.27;;
66020;SDS011;52789;59.980;30.346;2024-03-02T11:57:19;13.03;;;6.80;;
66020;SDS011;52789;59.980;30.346;2024-03-02T11:59:47;10.57;;;5.27;;
66020;SDS011;52789;59.980;30.346;2024-03-02T12:02:18;9.20;;;5.03;;
66020;SDS011;52789;59.980;30.346;2024-03-02T12:04:45;13.35;;;8.30;;
66020;SDS011;52789;59.980;30.346;2024-03-02T12:07:19;16.50;;;8.43;;
66020;SDS011;52789;59.980;30.346;2024-03-02T12:09:59;14.47;;;6.97;;
66020;SDS011;52789;59.980;30.346;2024-03-02T12:12:26;6.13;;;5.03;;
66020;SDS011;52789;59.980;30.346;2024-03-02T12:14:52;11.13;;;5.67;;
66020;SDS011;52789;59.980;30.346;2024-03-02T12:17:21;8.73;;;5.72;;
66020;SDS011;52789;59.980;30.346;2024-03-02T12:19:47;13.63;;;7.17;;
66020;SDS011;52789;59.980;30.346;2024-03-02T12:22:13;17.63;;;8.83;;
66020;SDS011;52789;59.980;30.346;2024-03-02T12:24:39;14.10;;;6.97;;
66020;SDS011;52789;59.980;30.346;2024-03-02T12:27:08;11.03;;;5.93;;
66020;SDS011;52789;59.980;30.346;2024-03-02T12:31:59;8.27;;;5.73;;
66020;SDS011;52789;59.980;30.346;2024-03-02T12:34:25;8.70;;;5.67;;
66020;SDS011;52789;59.980;30.346;2024-03-02T12:36:51;13.33;;;6.63;;
66020;SDS011;52789;59.980;30.346;2024-03-02T12:39:18;9.30;;;6.00;;
66020;SDS011;52789;59.980;30.346;2024-03-02T12:41:45;7.97;;;4.80;;
66020;SDS011;52789;59.980;30.346;2024-03-02T12:44:11;7.33;;;5.30;;
66020;SDS011;52789;59.980;30.346;2024-03-02T12:46:37;5.17;;;4.53;;
66020;SDS011;52789;59.980;30.346;2024-03-02T12:49:10;9.87;;;5.37;;
66020;SDS011;52789;59.980;30.346;2024-03-02T12:51:39;7.13;;;5.53;;
66020;SDS011;52789;59.980;30.346;2024-03-02T12:54:06;6.07;;;5.17;;
66020;SDS011;52789;59.980;30.346;2024-03-02T12:56:33;6.97;;;5.43;;
66020;SDS011;52789;59.980;30.346;2024-03-02T12:59:00;7.33;;;4.93;;
66020;SDS011;52789;59.980;30.346;2024-03-02T13:01:25;5.83;;;4.37;;
66020;SDS011;52789;59.980;30.346;2024-03-02T13:03:52;7.33;;;4.57;;
66020;SDS011;52789;59.980;30.346;2024-03-02T13:06:19;5.47;;;4.93;;
66020;SDS011;52789;59.980;30.346;2024-03-02T13:08:45;6.17;;;5.53;;
66020;SDS011;52789;59.980;30.346;2024-03-02T13:11:14;6.63;;;4.82;;
66020;SDS011;52789;59.980;30.346;2024-03-02T13:13:41;7.63;;;5.47;;
66020;SDS011;52789;59.980;30.346;2024-03-02T13:16:12;8.97;;;6.30;;
66020;SDS011;52789;59.980;30.346;2024-03-02T13:18:38;8.07;;;5.40;;
66020;SDS011;52789;59.980;30.346;2024-03-02T13:21:05;9.13;;;5.20;;
66020;SDS011;52789;59.980;30.346;2024-03-02T13:23:30;6.83;;;4.87;;
66020;SDS011;52789;59.980;30.346;2024-03-02T13:25:57;7.57;;;5.33;;
66020;SDS011;52789;59.980;30.346;2024-03-02T13:28:24;10.90;;;5.47;;
66020;SDS011;52789;59.980;30.346;2024-03-02T13:30:50;8.97;;;4.77;;
66020;SDS011;52789;59.980;30.346;2024-03-02T13:33:16;10.30;;;5.60;;
66020;SDS011;52789;59.980;30.346;2024-03-02T13:35:51;6.57;;;4.80;;
66020;SDS011;52789;59.980;30.346;2024-03-02T13:38:17;9.17;;;4.70;;
66020;SDS011;52789;59.980;30.346;2024-03-02T13:40:44;7.43;;;4.53;;
66020;SDS011;52789;59.980;30.346;2024-03-02T13:43:10;8.13;;;5.03;;
66020;SDS011;52789;59.980;30.346;2024-03-02T13:45:37;5.67;;;4.83;;
66020;SDS011;52789;59.980;30.346;2024-03-02T13:48:03;7.00;;;4.40;;
66020;SDS011;52789;59.980;30.346;2024-03-02T13:50:29;5.10;;;4.53;;
66020;SDS011;52789;59.980;30.346;2024-03-02T13:52:56;7.07;;;5.23;;
66020;SDS011;52789;59.980;30.346;2024-03-02T13:55:22;7.80;;;5.23;;
66020;SDS011;52789;59.980;30.346;2024-03-02T13:57:48;7.00;;;5.10;;
66020;SDS011;52789;59.980;30.346;2024-03-02T14:00:15;7.67;;;5.23;;
66020;SDS011;52789;59.980;30.346;2024-03-02T14:02:48;9.13;;;5.87;;
66020;SDS011;52789;59.980;30.346;2024-03-02T14:05:16;7.30;;;4.87;;
66020;SDS011;52789;59.980;30.346;2024-03-02T14:07:41;11.77;;;5.03;;
66020;SDS011;52789;59.980;30.346;2024-03-02T14:10:07;9.07;;;5.57;;
66020;SDS011;52789;59.980;30.346;2024-03-02T14:12:33;6.67;;;5.10;;
66020;SDS011;52789;59.980;30.346;2024-03-02T14:14:59;9.97;;;4.77;;
66020;SDS011;52789;59.980;30.346;2024-03-02T14:17:31;7.50;;;5.03;;
66020;SDS011;52789;59.980;30.346;2024-03-02T14:19:59;12.30;;;5.30;;
66020;SDS011;52789;59.980;30.346;2024-03-02T14:22:25;9.13;;;5.00;;
66020;SDS011;52789;59.980;30.346;2024-03-02T14:24:51;7.13;;;5.43;;
66020;SDS011;52789;59.980;30.346;2024-03-02T14:27:17;6.20;;;4.87;;
66020;SDS011;52789;59.980;30.346;2024-03-02T14:29:44;13.45;;;8.15;;
66020;SDS011;52789;59.980;30.346;2024-03-02T14:32:10;7.53;;;6.17;;
66020;SDS011;52789;59.980;30.346;2024-03-02T14:34:35;10.57;;;5.23;;
66020;SDS011;52789;59.980;30.346;2024-03-02T14:37:01;10.23;;;4.60;;
66020;SDS011;52789;59.980;30.346;2024-03-02T14:39:28;9.53;;;4.40;;
66020;SDS011;52789;59.980;30.346;2024-03-02T14:41:54;7.57;;;4.70;;
66020;SDS011;52789;59.980;30.346;2024-03-02T14:44:21;5.27;;;4.77;;
66020;SDS011;52789;59.980;30.346;2024-03-02T14:46:47;6.20;;;4.90;;
66020;SDS011;52789;59.980;30.346;2024-03-02T14:49:13;8.90;;;4.63;;
66020;SDS011;52789;59.980;30.346;2024-03-02T14:51:39;6.30;;;4.00;;